Hiddenite, NC (28636)

2:01 AM EDT on September 05, 2015 (GMT -0400)
Princeton Forest Drive | | Change Station
CLOSE
Current Station
Personal Weather Station
Location: Township Of Taylorsville, NC
Elevation: 1168 ft
Nearby Weather Stations

Elev 1168 ft 35.93 °N, 81.18 °W | Updated 11 seconds ago

Mostly Cloudy
Mostly Cloudy
65.8 °F
Feels Like 65.8 °F
N
0.0
Wind Variable Wind from North
Gusts 1.0 mph

Today
High -- | Low -- °F
--% Chance of Precip.
Yesterday
High -- | Low -- °F
Precip. -- in
6:59 AM 7:46 PM
Waning Gibbous, 52% visible
Pressure 30.12 in
Visibility 10.0 miles
Clouds Mostly Cloudy 4000 ft
Mostly Cloudy 4700 ft
Mostly Cloudy 6500 ft
Dew Point 64 °F
Humidity 93%
Rainfall 0.00 in
Snow Depth Not available.
UV 0 out of 12
Pollen 9.50 out of 12
Air Quality Not available.
Flu Activity Not available.
METAR KSVH 050535Z AUTO 04004KT 10SM BKN040 BKN047 BKN065 21/17 A3012 RMK AO2 T02080173
Pressure 30.12 in
Visibility 10.0 miles
Clouds Mostly Cloudy 4000 ft
Mostly Cloudy 4700 ft
Mostly Cloudy 6500 ft
Dew Point 64 °F
Humidity 93%
Rainfall 0.00 in
Snow Depth Not available.
UV 0 out of 12
Pollen 9.50 out of 12
Air Quality Not available.
Flu Activity Not available.
METAR KSVH 050535Z AUTO 04004KT 10SM BKN040 BKN047 BKN065 21/17 A3012 RMK AO2 T02080173

10-Day Weather Forecast

×

Almanac

Astronomy

Sep. 05, 2015 Rise Set
Actual Time
Civil Twilight
Nautical Twilight
Astronomical Twilight
Moon
Length of Visible Light
Length of Day
Tomorrow will be .
, % of the Moon is Illuminated

Today's Extremes

State Highs State Lows

Community

WunderPhotos

Upload Photos

1,852,431 photos uploaded!

WunderBlogs® & News

Nearby

Air Quality

  Air Quality AQ Index Pollutant
Not available.

Snow Depth

Station Depth Elevation

Earthquake Activity

City Distance Mag. Time & Date
Minimum magnitude displayed is 2.5.

Coastal Water Temperatures

Place Temperature

Stations

Nearby Weather Stations

Station Location Temp. Windchill Dew Point Humidity Wind Precip. Elev Updated Type